Latest  Newer  Older  Last 2 hours slideshow  Last 24 hours slideshow  Refresh every 5 minutes 
Current image  Latest image  Rain/snow radar  Cloud coverage sat images 

All time is UTC (add 2 hours to UTC in wintertime, 3 hours to UTC in DST for Latvia local time)

2019/04/20 08:20 EVRA 200820Z 32009KT 270V340 CAVOK 10/04 Q1029 NOSIG
2019/04/20 08:20 EVLA 200820Z AUTO 32006KT 290V350 9999 NCD 12/M01 Q1031
2019/04/20 08:20 EVVA 200820Z AUTO 36009KT CAVOK 09/05 Q1031
2019/04/20 08:20 EYKA 200820Z 34007KT 280V020 CAVOK 13/01 Q1028
2019/04/20 08:20 EYPA 200820Z 32003KT 250V060 CAVOK 11/05 Q1031
2019/04/20 08:20 EYSA 200820Z 33011KT 310V010 CAVOK 12/03 Q1029 BLU NOSIG
2019/04/20 08:20 EYVI 200820Z 34009KT CAVOK 11/01 Q1026 NOSIG
2019/04/20 07:50 EEKA 200750Z 36006KT 9999 BKN043 08/04 Q1031
2019/04/20 07:50 EEKE 200750Z 36008KT 9999 FEW038 09/03 Q1031
2019/04/20 07:50 EEPU 200750Z 36008KT 330V050 CAVOK 13/01 Q1029
2019/04/20 08:20 EETN 200820Z 34006KT CAVOK 10/02 Q1030 NOSIG
2019/04/20 07:50 EETU 200750Z AUTO 03007KT 350V070 9999 NCD 11/M00 Q1028
   RIGA AIRPORT     EVRA               56 55N  023 58E   10   X     T          6 LV
   LIEPAJA INTL     EVLA        26406  56 31N  021 06E    4   X                8 LV
   VENTPILS         EVVA               57 21N  021 33E    6   X                8 LV
   KAUNAS           EYKA               54 54N  023 55E   77   X     T          6 LT
   PALANGA INTL     EYPA               55 55N  021 03E   10   X                6 LT
   SIAULIAI INTL    EYSA               55 54N  023 24E  135   X     T          6 LT
   VILNIUS INTL     EYVI        26730  54 38N  025 17E  197   X     T          6 LT
   KARDLA           EEKA        26116  58 59N  022 50E    4   X                8 EE
   KURESSAARE       EEKE               58 14N  022 31E    4   X                8 EE
   PARNU            EEPU               58 25N  024 28E   14   X                8 EE
   TALLINN          EETN        26038  59 24N  024 49E   40   X     T          8 EE
   TARTU            EETU               58 19N  026 41E   67   X                8 EE